Time;durP1;ratioP1;P1;durP2;ratioP2;P2;SDS_P1;SDS_P2;PMS_P1;PMS_P2;Temp;Humidity;BMP_temperature;BMP_pressure;BME280_temperature;BME280_humidity;BME280_pressure;Samples;Min_cycle;Max_cycle;Signal;HPM_P1;HPM_P2
2022/12/17 13:06:54;;;;;;;97.60;35.05;;;;;;;-1.53;100.00;101355.00;5068736;28;20039;-81
2022/12/17 13:09:32;;;;;;;100.25;37.85;;;;;;;-1.60;100.00;101352.94;5066681;28;20037;-86
2022/12/17 13:12:34;;;;;;;100.07;36.45;;;;;;;-1.56;100.00;101354.56;5070447;28;20465;-82
2022/12/17 13:15:01;;;;;;;;;;;;;;;-1.56;100.00;101360.19;5071903;28;20024;-84
2022/12/17 13:17:31;;;;;;;98.00;34.45;;;;;;;-1.52;100.00;101363.03;5057754;28;19908;-83
2022/12/17 13:20:01;;;;;;;84.88;32.50;;;;;;;-1.55;100.00;101358.19;5066169;28;20040;-79
2022/12/17 13:22:30;;;;;;;85.63;33.60;;;;;;;-1.60;100.00;101366.94;5057902;28;20025;-80
2022/12/17 13:25:18;;;;;;;99.47;31.58;;;;;;;-1.67;100.00;101373.28;5037604;28;20112;-74
2022/12/17 13:27:45;;;;;;;101.55;36.60;;;;;;;-1.69;100.00;101366.44;5037102;28;20028;-81
2022/12/17 13:30:44;;;;;;;95.53;32.47;;;;;;;-1.73;100.00;101371.19;5037253;28;20453;-83
2022/12/17 13:33:38;;;;;;;94.80;35.03;;;;;;;-1.92;100.00;101362.97;4985837;28;20551;-80
2022/12/17 13:36:50;;;;;;;87.47;31.83;;;;;;;-1.97;100.00;101363.31;5015542;28;20111;-78
2022/12/17 13:39:34;;;;;;;98.60;33.72;;;;;;;-2.01;100.00;101391.28;4992866;28;20124;-81
2022/12/17 13:42:19;;;;;;;91.93;31.65;;;;;;;-2.07;100.00;101393.59;5073272;28;20036;-81
2022/12/17 13:44:46;;;;;;;97.70;34.00;;;;;;;-2.14;100.00;101389.88;5071261;28;20039;-85
2022/12/17 13:47:26;;;;;;;94.57;33.55;;;;;;;-2.11;100.00;101394.75;5074284;28;20103;-81
2022/12/17 13:49:54;;;;;;;90.78;32.92;;;;;;;-2.22;100.00;101403.00;5053855;28;20036;-83
2022/12/17 13:52:24;;;;;;;93.45;32.08;;;;;;;-2.29;100.00;101408.47;5074381;28;20027;-88
2022/12/17 13:55:05;;;;;;;99.22;34.60;;;;;;;-2.34;100.00;101403.19;5042082;28;20054;-90
2022/12/17 13:57:31;;;;;;;79.07;30.27;;;;;;;-2.29;100.00;101410.47;5073854;28;20045;-83
2022/12/17 14:00:01;;;;;;;94.93;31.80;;;;;;;-2.30;100.00;101420.88;5074457;28;20032;-85
2022/12/17 14:02:41;;;;;;;102.50;33.92;;;;;;;-2.29;100.00;101421.66;5073861;28;20025;-85
2022/12/17 14:05:26;;;;;;;88.05;31.98;;;;;;;-2.43;100.00;101422.25;5059063;28;20492;-89
2022/12/17 14:07:52;;;;;;;92.00;31.92;;;;;;;-2.50;100.00;101420.19;5039045;28;20029;-89
2022/12/17 14:10:18;;;;;;;87.15;31.70;;;;;;;-2.57;100.00;101428.44;5035484;28;20033;-87
2022/12/17 14:12:45;;;;;;;87.82;31.50;;;;;;;-2.67;100.00;101423.50;5041261;28;20381;-86
2022/12/17 14:15:21;;;;;;;90.28;31.05;;;;;;;-2.71;100.00;101431.03;5037937;28;20033;-84
2022/12/17 14:17:52;;;;;;;80.30;28.15;;;;;;;-2.70;100.00;101445.81;5019436;28;20029;-82
2022/12/17 14:20:21;;;;;;;92.30;31.90;;;;;;;-2.85;100.00;101436.38;5036321;28;20116;-80
2022/12/17 14:22:54;;;;;;;86.53;31.73;;;;;;;-2.90;100.00;101447.88;5043184;28;20428;-87
2022/12/17 14:25:43;;;;;;;87.35;30.52;;;;;;;-2.90;100.00;101457.06;5055384;28;20024;-87
2022/12/17 14:28:28;;;;;;;79.80;29.48;;;;;;;-2.90;100.00;101457.06;5055070;28;20021;-84
2022/12/17 14:31:17;;;;;;;90.63;31.95;;;;;;;-2.93;100.00;101466.19;5022626;28;20032;-90
2022/12/17 14:33:43;;;;;;;90.20;29.45;;;;;;;-2.97;100.00;101468.13;5040581;28;20032;-79
2022/12/17 14:36:15;;;;;;;84.28;29.33;;;;;;;-3.03;100.00;101469.59;5039542;28;20047;-81
2022/12/17 14:38:55;;;;;;;88.55;32.50;;;;;;;-3.03;100.00;101486.38;5057567;28;20434;-85
2022/12/17 14:44:23;;;;;;;87.20;32.28;;;;;;;-3.24;100.00;101502.75;5060447;28;20457;-77
2022/12/17 14:46:52;;;;;;;91.72;30.05;;;;;;;-3.22;100.00;101502.38;5046354;28;20021;-80
2022/12/17 14:49:19;;;;;;;86.35;28.35;;;;;;;-3.24;100.00;101499.97;5043283;28;20028;-79
2022/12/17 14:51:46;;;;;;;86.88;31.52;;;;;;;-3.16;100.00;101506.50;5046012;28;20127;-78
2022/12/17 14:54:21;;;;;;;93.03;30.45;;;;;;;-3.17;100.00;101513.25;5047733;28;20447;-78
2022/12/17 14:56:54;;;;;;;100.85;30.73;;;;;;;-3.15;100.00;101519.28;5062956;28;20031;-79
2022/12/17 14:59:36;;;;;;;94.18;33.35;;;;;;;-3.17;100.00;101516.84;5063442;28;20024;-78
2022/12/17 15:02:09;;;;;;;83.40;31.45;;;;;;;-3.18;100.00;101529.22;5054082;28;20086;-78
2022/12/17 15:04:36;;;;;;;84.20;30.50;;;;;;;-3.22;100.00;101522.75;5076188;28;20024;-80
2022/12/17 15:07:02;;;;;;;77.38;27.60;;;;;;;-3.20;100.00;101534.38;5058520;28;20025;-77
2022/12/17 15:09:28;;;;;;;82.20;30.90;;;;;;;-3.25;100.00;101526.28;5059312;28;20032;-80
2022/12/17 15:11:53;;;;;;;81.63;27.85;;;;;;;-3.29;100.00;101535.78;5078309;28;20082;-81
2022/12/17 15:14:21;;;;;;;81.75;27.00;;;;;;;-3.24;100.00;101553.06;5060064;28;20473;-82
2022/12/17 15:16:47;;;;;;;86.70;29.13;;;;;;;-3.31;100.00;101534.16;5079503;28;20032;-87
2022/12/17 15:19:13;;;;;;;79.72;29.70;;;;;;;-3.27;100.00;101539.00;5079294;28;20430;-88
2022/12/17 15:21:38;;;;;;;86.90;28.00;;;;;;;-3.45;100.00;101527.47;5081375;28;20044;-84
2022/12/17 15:24:14;;;;;;;78.40;27.88;;;;;;;-3.36;100.00;101547.59;5061546;28;20119;-83
2022/12/17 15:26:41;;;;;;;79.43;26.05;;;;;;;-3.35;100.00;101555.63;5043719;28;20032;-81
2022/12/17 15:29:08;;;;;;;73.70;28.20;;;;;;;-3.49;100.00;101552.53;5079387;28;20056;-83
2022/12/17 15:31:36;;;;;;;80.88;28.73;;;;;;;-3.50;100.00;101561.28;5072279;28;20401;-86
2022/12/17 15:34:03;;;;;;;81.97;29.10;;;;;;;-3.52;100.00;101563.63;5077094;28;20462;-85
2022/12/17 15:36:30;;;;;;;87.00;29.83;;;;;;;-3.51;100.00;101574.44;5063142;28;20081;-88
2022/12/17 15:38:57;;;;;;;73.57;28.52;;;;;;;-3.46;100.00;101576.94;5044797;28;20123;-89
2022/12/17 15:44:08;;;;;;;83.00;28.75;;;;;;;-3.67;100.00;101565.28;5076791;28;20127;-82
2022/12/17 15:46:34;;;;;;;82.97;28.38;;;;;;;-3.68;100.00;101568.47;5076718;28;20465;-84
2022/12/17 15:48:59;;;;;;;71.40;26.90;;;;;;;-3.51;100.00;101582.00;5058364;28;20478;-78
2022/12/17 15:51:25;;;;;;;70.60;25.48;;;;;;;-3.49;100.00;101574.06;5076401;28;20081;-78
2022/12/17 15:53:52;;;;;;;77.07;27.48;;;;;;;-3.47;100.00;101580.09;5072774;28;20370;-77
2022/12/17 15:56:26;;;;;;;82.00;25.75;;;;;;;-3.50;100.00;101578.03;5075768;28;20051;-77
2022/12/17 15:58:55;;;;;;;60.90;22.20;;;;;;;-3.52;100.00;101591.53;5075798;28;20489;-78
2022/12/17 16:01:22;;;;;;;62.28;21.40;;;;;;;-3.63;100.00;101573.75;5045229;28;20040;-78
2022/12/17 16:03:47;;;;;;;61.75;21.08;;;;;;;-3.57;100.00;101586.25;5056007;28;20115;-80
2022/12/17 16:06:13;;;;;;;62.45;22.58;;;;;;;-3.56;100.00;101593.47;5064378;28;20070;-83
2022/12/17 16:08:39;;;;;;;74.28;21.65;;;;;;;-3.55;100.00;101590.31;5058178;28;20044;-77
2022/12/17 16:11:10;;;;;;;68.15;23.95;;;;;;;-3.50;100.00;101592.00;5075232;28;20020;-79
2022/12/17 16:13:37;;;;;;;71.63;22.15;;;;;;;-3.50;100.00;101604.00;5041639;28;20032;-81
2022/12/17 16:16:04;;;;;;;73.57;24.48;;;;;;;-3.52;100.00;101603.53;5057924;28;20153;-81
2022/12/17 16:18:29;;;;;;;76.13;25.83;;;;;;;-3.51;100.00;101612.72;5057830;28;20040;-78
2022/12/17 16:21:01;;;;;;;52.75;20.92;;;;;;;-3.51;100.00;101615.50;5059892;28;20143;-80
2022/12/17 16:23:26;;;;;;;71.10;23.23;;;;;;;-3.56;100.00;101615.81;5075575;28;20508;-80
2022/12/17 16:25:57;;;;;;;64.75;22.00;;;;;;;-3.58;100.00;101616.16;5075095;28;20075;-84
2022/12/17 16:28:31;;;;;;;64.82;21.83;;;;;;;-3.58;100.00;101616.16;5075345;28;20469;-76
2022/12/17 16:31:05;;;;;;;57.00;19.50;;;;;;;-3.58;100.00;101629.34;5075199;28;20078;-76
2022/12/17 16:33:35;;;;;;;52.45;21.40;;;;;;;-3.61;100.00;101628.06;5057348;28;20020;-79
2022/12/17 16:36:01;;;;;;;62.80;20.13;;;;;;;-3.56;100.00;101633.38;5075718;28;20024;-78
2022/12/17 16:38:27;;;;;;;59.58;21.77;;;;;;;-3.51;100.00;101644.25;5078996;28;20041;-78
2022/12/17 16:40:55;;;;;;;56.47;17.92;;;;;;;-3.46;100.00;101651.56;5066374;28;20052;-77
2022/12/17 16:43:25;;;;;;;53.75;18.65;;;;;;;-3.45;100.00;101650.38;5041846;28;20086;-77
2022/12/17 16:45:59;;;;;;;53.72;18.48;;;;;;;-3.48;100.00;101653.91;5059047;28;20118;-78
2022/12/17 16:48:40;;;;;;;49.45;16.45;;;;;;;-3.54;100.00;101660.94;5058613;28;20043;-80
2022/12/17 16:51:15;;;;;;;44.70;16.67;;;;;;;-3.60;100.00;101654.81;5075630;28;20051;-77
2022/12/17 16:53:46;;;;;;;47.85;17.17;;;;;;;-3.71;100.00;101655.75;5074429;28;20119;-77
2022/12/17 16:56:19;;;;;;;51.55;17.48;;;;;;;-3.76;100.00;101659.63;5057172;28;20039;-78
2022/12/17 16:59:01;;;;;;;50.92;16.20;;;;;;;-3.76;100.00;101660.44;5074375;28;20057;-79
2022/12/17 17:01:33;;;;;;;57.10;17.73;;;;;;;-3.77;100.00;101664.38;5074704;28;20036;-77
2022/12/17 17:03:59;;;;;;;58.22;17.08;;;;;;;-3.79;100.00;101661.16;5074162;28;20405;-78
2022/12/17 17:06:25;;;;;;;59.72;18.63;;;;;;;-3.76;100.00;101668.00;5056624;28;20028;-78
2022/12/17 17:08:53;;;;;;;60.80;19.27;;;;;;;-3.77;100.00;101663.56;5056150;28;20025;-80
2022/12/17 17:11:22;;;;;;;48.10;18.45;;;;;;;-3.76;100.00;101656.81;5074747;28;20032;-79
2022/12/17 17:13:50;;;;;;;54.38;17.88;;;;;;;-3.80;100.00;101669.91;5056797;28;20036;-78
2022/12/17 17:16:19;;;;;;;48.55;16.25;;;;;;;-3.79;100.00;101672.34;5074472;28;20032;-79
2022/12/17 17:18:44;;;;;;;57.10;19.75;;;;;;;-3.79;100.00;101671.53;5039906;28;20039;-78
2022/12/17 17:21:22;;;;;;;56.88;20.60;;;;;;;-3.72;100.00;101674.47;5040016;28;20116;-79
2022/12/17 17:23:52;;;;;;;57.33;19.27;;;;;;;-3.68;100.00;101674.56;5074738;28;20117;-78
2022/12/17 17:26:17;;;;;;;51.80;19.10;;;;;;;-3.65;100.00;101683.03;5057146;28;20028;-77
2022/12/17 17:28:45;;;;;;;60.63;19.90;;;;;;;-3.64;100.00;101687.47;5072688;28;20068;-83
2022/12/17 17:31:12;;;;;;;58.60;18.73;;;;;;;-3.61;100.00;101689.50;5056393;28;20039;-80
2022/12/17 17:33:39;;;;;;;60.38;18.77;;;;;;;-3.66;100.00;101688.97;5074042;28;20465;-81
2022/12/17 17:36:12;;;;;;;54.38;19.15;;;;;;;-3.56;100.00;101699.59;5058159;28;20104;-81
2022/12/17 17:38:41;;;;;;;51.03;17.60;;;;;;;-3.77;100.00;101671.94;5068212;28;20074;-81
2022/12/17 17:41:28;;;;;;;56.38;18.70;;;;;;;-3.64;100.00;101700.59;5036963;28;20036;-81
2022/12/17 17:43:57;;;;;;;46.78;18.80;;;;;;;-3.67;100.00;101702.13;5062122;28;20377;-80
2022/12/17 17:46:24;;;;;;;50.17;19.65;;;;;;;-3.65;100.00;101704.56;5049574;28;20032;-84
2022/12/17 17:48:50;;;;;;;53.75;20.10;;;;;;;-3.68;100.00;101706.13;5051582;28;20110;-82
2022/12/17 17:51:17;;;;;;;54.65;19.13;;;;;;;-3.66;100.00;101708.53;5057643;28;20414;-83
2022/12/17 17:53:43;;;;;;;61.03;20.33;;;;;;;-3.68;100.00;101696.91;5058117;28;20032;-79
2022/12/17 17:56:14;;;;;;;63.97;19.55;;;;;;;-3.63;100.00;101717.00;5079582;28;20073;-81
2022/12/17 17:58:46;;;;;;;61.22;20.55;;;;;;;-3.58;100.00;101718.72;5060417;28;20421;-81
2022/12/17 18:01:12;;;;;;;;;;;;;;;-3.54;100.00;101716.81;5074472;28;20381;-81
2022/12/17 18:03:38;;;;;;;59.03;19.17;;;;;;;-3.54;100.00;101717.63;5056500;28;19908;-79
2022/12/17 18:06:06;;;;;;;59.92;20.50;;;;;;;-3.51;100.00;101727.25;5055858;28;20043;-83
2022/12/17 18:08:32;;;;;;;60.72;20.55;;;;;;;-3.52;100.00;101729.22;5056526;28;20031;-81
2022/12/17 18:11:00;;;;;;;58.17;18.25;;;;;;;-3.58;100.00;101739.06;5056544;28;20032;-76
2022/12/17 18:16:12;;;;;;;56.50;21.23;;;;;;;-3.58;100.00;101718.72;5058802;28;20039;-79
2022/12/17 18:18:38;;;;;;;56.10;19.92;;;;;;;-3.49;100.00;101739.69;5053741;28;20103;-81
2022/12/17 18:21:09;;;;;;;63.28;22.00;;;;;;;-3.48;100.00;101737.72;5058553;28;20093;-79
2022/12/17 18:23:41;;;;;;;58.47;20.30;;;;;;;-3.48;100.00;101746.88;5060828;28;20444;-80
2022/12/17 18:26:09;;;;;;;61.67;20.50;;;;;;;-3.50;100.00;101749.25;5040567;28;20033;-79
2022/12/17 18:28:36;;;;;;;52.05;19.45;;;;;;;-3.55;100.00;101757.09;5035701;28;20045;-81
2022/12/17 18:31:06;;;;;;;56.53;19.70;;;;;;;-3.57;100.00;101753.81;5048118;28;20029;-82
2022/12/17 18:33:34;;;;;;;54.78;20.42;;;;;;;-3.54;100.00;101755.91;5037256;28;20043;-80
2022/12/17 18:36:06;;;;;;;55.13;19.63;;;;;;;-3.59;100.00;101761.78;5035978;28;20025;-78
2022/12/17 18:38:39;;;;;;;56.92;20.20;;;;;;;-3.66;100.00;101756.81;5059216;28;20043;-81
2022/12/17 18:44:10;;;;;;;58.75;20.52;;;;;;;-3.63;100.00;101775.66;5053026;28;20397;-78
2022/12/17 18:46:37;;;;;;;65.15;21.38;;;;;;;-3.61;100.00;101775.28;5035290;28;20031;-77
2022/12/17 18:49:07;;;;;;;54.08;20.35;;;;;;;-3.62;100.00;101777.25;5052821;28;20079;-77
2022/12/17 18:51:36;;;;;;;50.63;18.33;;;;;;;-3.62;100.00;101784.81;5035142;28;20060;-80
2022/12/17 18:54:05;;;;;;;56.28;20.33;;;;;;;-3.59;100.00;101789.72;5052951;28;20044;-78
2022/12/17 18:56:32;;;;;;;51.65;18.13;;;;;;;-3.68;100.00;101791.88;5035012;28;20031;-76
2022/12/17 18:58:58;;;;;;;56.40;18.27;;;;;;;-3.73;100.00;101784.56;5034876;28;20056;-75
2022/12/17 19:01:34;;;;;;;55.40;20.13;;;;;;;-3.67;100.00;101794.28;5052630;28;20045;-76
2022/12/17 19:04:05;;;;;;;59.92;19.70;;;;;;;-3.77;100.00;101797.59;5052152;28;20033;-74
2022/12/17 19:06:32;;;;;;;58.75;19.77;;;;;;;-3.80;100.00;101812.28;5042009;28;20021;-75
2022/12/17 19:08:58;;;;;;;69.55;21.70;;;;;;;-3.87;100.00;101807.31;5072524;28;20041;-75
2022/12/17 19:11:25;;;;;;;55.03;20.48;;;;;;;-3.88;100.00;101810.50;5054788;28;20040;-76
2022/12/17 19:13:51;;;;;;;58.70;19.67;;;;;;;-3.88;100.00;101810.50;5054240;28;20048;-75
2022/12/17 19:16:22;;;;;;;63.08;21.45;;;;;;;-3.95;100.00;101822.25;5055975;28;20029;-75
2022/12/17 19:18:52;;;;;;;64.53;22.13;;;;;;;-4.00;100.00;101822.50;5058304;28;20032;-76
2022/12/17 19:21:19;;;;;;;68.93;24.50;;;;;;;-4.04;100.00;101832.78;5058383;28;20582;-75
2022/12/17 19:23:45;;;;;;;58.03;21.77;;;;;;;-4.02;100.00;101829.63;5057791;28;20504;-76
2022/12/17 19:26:17;;;;;;;65.60;20.85;;;;;;;-3.98;100.00;101838.91;5058261;28;20110;-75
2022/12/17 19:28:47;;;;;;;55.05;20.35;;;;;;;-3.99;100.00;101837.28;5058990;28;20060;-81
2022/12/17 19:31:12;;;;;;;58.85;22.42;;;;;;;-4.04;100.00;101838.34;5041506;28;20052;-75
2022/12/17 19:33:44;;;;;;;55.13;19.88;;;;;;;-4.00;100.00;101839.25;5075524;28;20133;-78
2022/12/17 19:36:19;;;;;;;48.67;19.38;;;;;;;-4.03;100.00;101851.16;5057878;28;20082;-75
2022/12/17 19:38:45;;;;;;;49.47;19.75;;;;;;;-4.11;100.00;101845.69;5058402;28;20354;-74
2022/12/17 19:41:14;;;;;;;54.88;19.92;;;;;;;-4.22;100.00;101840.63;5057450;28;20032;-76
2022/12/17 19:43:42;;;;;;;50.72;20.00;;;;;;;-4.20;100.00;101843.06;5069293;28;20040;-76
2022/12/17 19:46:11;;;;;;;59.22;20.48;;;;;;;-4.16;100.00;101843.97;5064368;28;20067;-76
2022/12/17 19:48:39;;;;;;;51.33;20.45;;;;;;;-4.32;100.00;101826.38;5053982;28;20421;-74
2022/12/17 19:51:07;;;;;;;57.03;20.02;;;;;;;-4.19;100.00;101855.84;5043049;28;20115;-72
2022/12/17 19:53:37;;;;;;;54.15;19.40;;;;;;;-4.11;100.00;101854.06;5070886;28;20372;-77
2022/12/17 19:56:09;;;;;;;;;;;;;;;-4.22;100.00;101862.16;5058575;28;20104;-77
2022/12/17 19:58:35;;;;;;;50.58;17.50;;;;;;;-4.26;100.00;101872.38;5057808;28;20295;-78
2022/12/17 20:01:12;;;;;;;60.78;19.10;;;;;;;-4.26;100.00;101872.38;5075402;28;20054;-79
2022/12/17 20:03:39;;;;;;;55.65;19.38;;;;;;;-4.24;100.00;101873.66;5041571;28;20523;-77
2022/12/17 20:06:07;;;;;;;67.18;22.08;;;;;;;-4.26;100.00;101873.19;5058343;28;20024;-77
2022/12/17 20:08:34;;;;;;;61.35;21.00;;;;;;;-4.23;100.00;101880.88;5075816;28;20036;-78
2022/12/17 20:11:03;;;;;;;56.85;20.75;;;;;;;-4.25;100.00;101879.59;5041664;28;20135;-77
2022/12/17 20:13:29;;;;;;;63.40;20.63;;;;;;;-4.27;100.00;101888.31;5036654;28;20131;-78
2022/12/17 20:16:02;;;;;;;55.55;18.45;;;;;;;-4.28;100.00;101881.13;5067279;28;20096;-78
2022/12/17 20:18:33;;;;;;;52.33;19.55;;;;;;;-4.39;100.00;101884.75;5055369;28;20028;-80
2022/12/17 20:21:03;;;;;;;49.40;19.42;;;;;;;-4.33;100.00;101902.88;5037634;28;20070;-79
2022/12/17 20:23:29;;;;;;;69.93;21.50;;;;;;;-4.41;100.00;101901.81;5044668;28;20023;-81
2022/12/17 20:26:04;;;;;;;55.70;20.65;;;;;;;-4.43;100.00;101906.13;5056670;28;20062;-80
2022/12/17 20:28:32;;;;;;;58.42;21.33;;;;;;;-4.41;100.00;101907.41;5041186;28;20082;-79
2022/12/17 20:31:00;;;;;;;57.60;21.33;;;;;;;-4.50;100.00;101895.56;5067191;28;20017;-81
2022/12/17 20:33:26;;;;;;;69.63;22.17;;;;;;;-4.58;100.00;101885.38;5043058;28;20493;-82
2022/12/17 20:35:52;;;;;;;72.97;24.70;;;;;;;-4.37;100.00;101905.53;5055463;28;20477;-78
2022/12/17 20:38:18;;;;;;;67.32;23.92;;;;;;;-4.35;100.00;101908.78;5040259;28;20116;-79
2022/12/17 20:40:44;;;;;;;71.20;26.17;;;;;;;-4.50;100.00;101880.81;5074167;28;20040;-77
2022/12/17 20:43:09;;;;;;;60.33;21.17;;;;;;;-4.35;100.00;101902.41;5074802;28;20381;-79
2022/12/17 20:45:34;;;;;;;73.88;25.73;;;;;;;-4.56;100.00;101877.44;5074557;28;20121;-79
2022/12/17 20:48:01;;;;;;;72.45;26.52;;;;;;;-4.25;100.00;101929.81;5057169;28;20522;-82
2022/12/17 20:50:26;;;;;;;81.88;26.30;;;;;;;-4.28;100.00;101913.78;5076437;28;20482;-79
2022/12/17 20:52:52;;;;;;;75.38;26.33;;;;;;;-4.26;100.00;101936.53;5080386;28;20078;-79
2022/12/17 20:55:22;;;;;;;83.68;27.23;;;;;;;-4.26;100.00;101931.78;5062035;28;20103;-78
2022/12/17 20:57:47;;;;;;;76.07;25.27;;;;;;;-4.24;100.00;101937.03;5024017;28;20052;-80
2022/12/17 21:00:17;;;;;;;90.15;28.90;;;;;;;-4.33;100.00;101930.75;5073691;28;20032;-78
2022/12/17 21:02:44;;;;;;;73.05;26.55;;;;;;;-4.29;100.00;101942.84;5074609;28;20112;-79
2022/12/17 21:05:11;;;;;;;86.18;27.02;;;;;;;-4.42;100.00;101930.09;5073586;28;20047;-77
2022/12/17 21:07:37;;;;;;;80.68;27.23;;;;;;;-4.36;100.00;101943.41;5036476;28;20025;-80
2022/12/17 21:10:05;;;;;;;73.75;24.63;;;;;;;-4.39;100.00;101932.97;5053786;28;20039;-78
2022/12/17 21:15:34;;;;;;;72.55;27.63;;;;;;;-4.24;100.00;101942.59;5054326;28;20087;-79
2022/12/17 21:17:59;;;;;;;72.93;26.52;;;;;;;-4.28;100.00;101945.28;5018444;28;20049;-78
2022/12/17 21:20:26;;;;;;;86.53;27.23;;;;;;;-4.42;100.00;101936.47;5054004;28;20049;-79
2022/12/17 21:22:51;;;;;;;73.95;25.80;;;;;;;-4.24;100.00;101968.53;5034387;28;20059;-78
2022/12/17 21:25:19;;;;;;;70.55;27.33;;;;;;;-4.24;100.00;101971.31;5019080;28;20041;-78
2022/12/17 21:27:51;;;;;;;81.65;27.02;;;;;;;-4.22;100.00;101968.97;5053426;28;20017;-78
2022/12/17 21:30:19;;;;;;;67.10;26.23;;;;;;;-4.17;100.00;101960.34;5053702;28;20075;-79
2022/12/17 21:32:47;;;;;;;70.38;25.90;;;;;;;-4.17;100.00;101962.34;5053106;28;20032;-77
2022/12/17 21:35:14;;;;;;;74.22;27.42;;;;;;;-4.19;100.00;101961.88;5053378;28;20554;-78
2022/12/17 21:37:41;;;;;;;82.97;27.13;;;;;;;-4.17;100.00;101965.94;5018997;28;20056;-78
2022/12/17 21:40:09;;;;;;;80.00;28.08;;;;;;;-4.20;100.00;101977.00;5052022;28;20043;-77
2022/12/17 21:45:36;;;;;;;73.20;25.50;;;;;;;-4.20;100.00;101983.41;5053584;28;20099;-78
2022/12/17 21:48:04;;;;;;;92.72;26.95;;;;;;;-4.18;100.00;101985.84;5036053;28;20025;-77
2022/12/17 21:50:32;;;;;;;75.03;25.13;;;;;;;-4.14;100.00;101988.75;5018913;28;20041;-76
2022/12/17 21:52:58;;;;;;;93.40;30.27;;;;;;;-4.23;100.00;101970.16;5034030;28;20060;-78
2022/12/17 21:55:26;;;;;;;76.38;27.25;;;;;;;-4.08;100.00;101982.56;5035293;28;20456;-78
2022/12/17 21:57:51;;;;;;;70.65;26.10;;;;;;;-4.06;100.00;101988.59;5038853;28;20083;-78
2022/12/17 22:00:21;;;;;;;73.63;26.85;;;;;;;-4.07;100.00;101992.56;5054717;28;20075;-78
2022/12/17 22:02:47;;;;;;;75.05;25.98;;;;;;;-4.05;100.00;101995.81;5072807;28;20028;-78
2022/12/17 22:05:18;;;;;;;76.28;24.88;;;;;;;-4.03;100.00;101995.47;5053608;28;20203;-78
2022/12/17 22:07:45;;;;;;;72.65;26.15;;;;;;;-4.00;100.00;101983.59;5052493;28;20025;-78
2022/12/17 22:10:25;;;;;;;63.53;22.23;;;;;;;-3.99;100.00;101993.59;5052942;28;20047;-77
2022/12/17 22:15:37;;;;;;;69.50;23.50;;;;;;;-4.04;100.00;101997.44;5053181;28;20496;-80
2022/12/17 22:18:03;;;;;;;61.13;22.15;;;;;;;-4.06;100.00;101985.81;5018861;28;20166;-79
2022/12/17 22:20:29;;;;;;;63.60;24.10;;;;;;;-4.05;100.00;101987.44;5052009;28;20108;-80
2022/12/17 22:22:54;;;;;;;62.92;24.20;;;;;;;-4.03;100.00;102001.88;5052222;28;20025;-79
2022/12/17 22:25:21;;;;;;;75.68;25.13;;;;;;;-4.03;100.00;101993.50;5035114;28;20041;-78
2022/12/17 22:27:46;;;;;;;63.13;22.50;;;;;;;-4.02;100.00;101989.53;5052786;28;20044;-78
2022/12/17 22:33:01;;;;;;;68.35;22.45;;;;;;;-3.98;100.00;101993.25;5052871;28;20032;-80
2022/12/17 22:35:37;;;;;;;57.22;23.42;;;;;;;-3.95;100.00;102005.69;5052614;28;20037;-79
2022/12/17 22:38:04;;;;;;;61.88;21.10;;;;;;;-3.91;100.00;102009.38;5034574;28;20029;-79
2022/12/17 22:40:36;;;;;;;57.95;22.70;;;;;;;-3.91;100.00;102003.81;5034900;28;20040;-80
2022/12/17 22:45:45;;;;;;;60.13;21.23;;;;;;;-3.85;100.00;102008.00;5039191;28;20163;-78
2022/12/17 22:48:11;;;;;;;59.58;22.48;;;;;;;-3.81;100.00;102018.09;5070834;28;20121;-79
2022/12/17 22:50:38;;;;;;;63.10;22.23;;;;;;;-3.80;100.00;102016.94;5054959;28;20485;-79
2022/12/17 22:53:19;;;;;;;60.15;22.25;;;;;;;-3.82;100.00;102016.47;5076274;28;20030;-78
2022/12/17 22:55:47;;;;;;;50.67;19.20;;;;;;;-3.83;100.00;102012.06;5076883;28;20040;-76
2022/12/17 22:58:21;;;;;;;57.22;20.60;;;;;;;-3.78;100.00;102022.97;5041868;28;20090;-77
2022/12/17 23:00:46;;;;;;;52.58;20.38;;;;;;;-3.73;100.00;102023.91;5059176;28;20024;-79
2022/12/17 23:03:26;;;;;;;50.65;19.90;;;;;;;-3.69;100.00;102019.25;5072398;28;20176;-78
2022/12/17 23:06:05;;;;;;;59.97;22.20;;;;;;;-3.70;100.00;102007.25;5074457;28;20032;-80
2022/12/17 23:08:32;;;;;;;63.03;22.58;;;;;;;-3.66;100.00;102008.16;5076570;28;20100;-81
2022/12/17 23:11:05;;;;;;;62.28;21.85;;;;;;;-3.60;100.00;102020.72;5078251;28;20056;-83
2022/12/17 23:13:31;;;;;;;54.22;20.17;;;;;;;-3.53;100.00;102020.13;5064987;28;20052;-82
2022/12/17 23:15:58;;;;;;;49.63;19.30;;;;;;;-3.74;100.00;101992.38;5076706;28;20029;-82
2022/12/17 23:18:24;;;;;;;53.83;18.02;;;;;;;-3.63;100.00;102021.44;5059330;28;20035;-81
2022/12/17 23:20:51;;;;;;;52.55;18.98;;;;;;;-3.70;100.00;102020.41;5071975;28;20044;-82
2022/12/17 23:23:18;;;;;;;44.33;18.05;;;;;;;-3.70;100.00;102034.34;5076586;28;20028;-79
2022/12/17 23:25:45;;;;;;;56.00;18.45;;;;;;;-3.66;100.00;102033.28;5076719;28;20059;-83
2022/12/17 23:28:12;;;;;;;56.33;21.00;;;;;;;-3.82;100.00;102015.66;5076943;28;20024;-82
2022/12/17 23:30:39;;;;;;;48.67;19.35;;;;;;;-3.63;100.00;102049.38;5076343;28;20377;-82
2022/12/17 23:33:07;;;;;;;56.72;20.40;;;;;;;-3.64;100.00;102041.34;5058532;28;20020;-82
2022/12/17 23:35:35;;;;;;;50.65;18.80;;;;;;;-3.82;100.00;102019.25;5058278;28;20093;-82
2022/12/17 23:38:03;;;;;;;45.47;18.98;;;;;;;-3.78;100.00;102019.38;5076431;28;20021;-80
2022/12/17 23:40:31;;;;;;;54.78;18.77;;;;;;;-3.71;100.00;102039.13;5041848;28;20101;-82
2022/12/17 23:42:59;;;;;;;50.53;18.13;;;;;;;-3.65;100.00;102042.50;5075802;28;20031;-81
2022/12/17 23:45:27;;;;;;;47.05;18.98;;;;;;;-3.67;100.00;102061.56;5076322;28;20052;-80
2022/12/17 23:47:53;;;;;;;53.33;19.38;;;;;;;-3.61;100.00;102051.78;5076004;28;20039;-80
2022/12/17 23:50:18;;;;;;;51.25;19.55;;;;;;;-3.67;100.00;102050.41;5075327;28;20025;-79
2022/12/17 23:52:44;;;;;;;44.58;17.65;;;;;;;-3.70;100.00;102060.31;5074337;28;20041;-81
2022/12/17 23:55:21;;;;;;;54.03;19.13;;;;;;;-3.72;100.00;102059.03;5039995;28;20050;-79
2022/12/17 23:57:47;;;;;;;44.22;17.30;;;;;;;-3.71;100.00;102055.06;5074821;28;20051;-80
